sensor_id;sensor_type;location;lat;lon;timestamp;P1;durP1;ratioP1;P2;durP2;ratioP2
7330;SDS011;3706;49.198;7.064;2024-01-15T00:00:34;26.00;;;10.20;;
7330;SDS011;3706;49.198;7.064;2024-01-15T00:03:01;37.70;;;13.00;;
7330;SDS011;3706;49.198;7.064;2024-01-15T00:05:29;32.13;;;12.30;;
7330;SDS011;3706;49.198;7.064;2024-01-15T00:07:55;29.23;;;11.33;;
7330;SDS011;3706;49.198;7.064;2024-01-15T00:10:22;31.27;;;12.00;;
7330;SDS011;3706;49.198;7.064;2024-01-15T00:12:49;30.77;;;12.43;;
7330;SDS011;3706;49.198;7.064;2024-01-15T00:15:16;32.77;;;12.30;;
7330;SDS011;3706;49.198;7.064;2024-01-15T00:17:45;32.87;;;10.70;;
7330;SDS011;3706;49.198;7.064;2024-01-15T00:20:15;33.87;;;11.03;;
7330;SDS011;3706;49.198;7.064;2024-01-15T00:22:49;35.87;;;13.20;;
7330;SDS011;3706;49.198;7.064;2024-01-15T00:25:19;40.43;;;12.97;;
7330;SDS011;3706;49.198;7.064;2024-01-15T00:27:46;31.27;;;13.03;;
7330;SDS011;3706;49.198;7.064;2024-01-15T00:30:13;36.30;;;14.63;;
7330;SDS011;3706;49.198;7.064;2024-01-15T00:32:40;36.53;;;14.10;;
7330;SDS011;3706;49.198;7.064;2024-01-15T00:35:09;34.70;;;12.70;;
7330;SDS011;3706;49.198;7.064;2024-01-15T00:37:38;36.07;;;12.67;;
7330;SDS011;3706;49.198;7.064;2024-01-15T00:40:08;41.83;;;15.93;;
7330;SDS011;3706;49.198;7.064;2024-01-15T00:42:35;40.07;;;15.07;;
7330;SDS011;3706;49.198;7.064;2024-01-15T00:45:03;31.30;;;13.10;;
7330;SDS011;3706;49.198;7.064;2024-01-15T00:47:33;40.60;;;14.83;;
7330;SDS011;3706;49.198;7.064;2024-01-15T00:49:59;29.33;;;12.00;;
7330;SDS011;3706;49.198;7.064;2024-01-15T00:52:28;40.60;;;15.60;;
7330;SDS011;3706;49.198;7.064;2024-01-15T00:54:55;29.87;;;11.67;;
7330;SDS011;3706;49.198;7.064;2024-01-15T00:57:22;31.50;;;13.17;;
7330;SDS011;3706;49.198;7.064;2024-01-15T00:59:49;39.20;;;13.63;;
7330;SDS011;3706;49.198;7.064;2024-01-15T01:02:16;32.57;;;13.20;;
7330;SDS011;3706;49.198;7.064;2024-01-15T01:04:43;35.83;;;14.17;;
7330;SDS011;3706;49.198;7.064;2024-01-15T01:07:10;35.13;;;14.07;;
7330;SDS011;3706;49.198;7.064;2024-01-15T01:09:38;37.07;;;13.20;;
7330;SDS011;3706;49.198;7.064;2024-01-15T01:12:06;33.37;;;13.50;;
7330;SDS011;3706;49.198;7.064;2024-01-15T01:14:33;31.23;;;12.00;;
7330;SDS011;3706;49.198;7.064;2024-01-15T01:17:00;36.73;;;12.67;;
7330;SDS011;3706;49.198;7.064;2024-01-15T01:19:27;33.93;;;13.77;;
7330;SDS011;3706;49.198;7.064;2024-01-15T01:21:55;29.73;;;13.07;;
7330;SDS011;3706;49.198;7.064;2024-01-15T01:24:22;30.40;;;12.57;;
7330;SDS011;3706;49.198;7.064;2024-01-15T01:26:51;36.30;;;12.63;;
7330;SDS011;3706;49.198;7.064;2024-01-15T01:29:17;34.17;;;13.07;;
7330;SDS011;3706;49.198;7.064;2024-01-15T01:31:44;36.20;;;13.60;;
7330;SDS011;3706;49.198;7.064;2024-01-15T01:34:13;31.07;;;12.30;;
7330;SDS011;3706;49.198;7.064;2024-01-15T01:36:41;37.23;;;12.93;;
7330;SDS011;3706;49.198;7.064;2024-01-15T01:39:08;29.20;;;11.47;;
7330;SDS011;3706;49.198;7.064;2024-01-15T01:41:35;35.97;;;13.67;;
7330;SDS011;3706;49.198;7.064;2024-01-15T01:44:04;37.27;;;13.33;;
7330;SDS011;3706;49.198;7.064;2024-01-15T01:46:31;37.13;;;14.00;;
7330;SDS011;3706;49.198;7.064;2024-01-15T01:48:58;24.40;;;10.13;;
7330;SDS011;3706;49.198;7.064;2024-01-15T01:51:30;29.63;;;11.00;;
7330;SDS011;3706;49.198;7.064;2024-01-15T01:53:58;38.03;;;14.60;;
7330;SDS011;3706;49.198;7.064;2024-01-15T01:56:25;32.90;;;12.37;;
7330;SDS011;3706;49.198;7.064;2024-01-15T01:58:52;28.73;;;12.57;;
7330;SDS011;3706;49.198;7.064;2024-01-15T02:01:21;29.97;;;12.90;;
7330;SDS011;3706;49.198;7.064;2024-01-15T02:03:48;31.97;;;12.70;;
7330;SDS011;3706;49.198;7.064;2024-01-15T02:06:15;29.80;;;11.33;;
7330;SDS011;3706;49.198;7.064;2024-01-15T02:08:43;16.07;;;7.03;;
7330;SDS011;3706;49.198;7.064;2024-01-15T02:11:10;33.70;;;12.07;;
7330;SDS011;3706;49.198;7.064;2024-01-15T02:13:38;34.37;;;13.13;;
7330;SDS011;3706;49.198;7.064;2024-01-15T02:16:05;20.40;;;8.87;;
7330;SDS011;3706;49.198;7.064;2024-01-15T02:18:41;35.83;;;13.40;;
7330;SDS011;3706;49.198;7.064;2024-01-15T02:21:08;29.40;;;11.53;;
7330;SDS011;3706;49.198;7.064;2024-01-15T02:23:37;35.10;;;12.70;;
7330;SDS011;3706;49.198;7.064;2024-01-15T02:26:04;30.10;;;12.87;;
7330;SDS011;3706;49.198;7.064;2024-01-15T02:28:33;34.40;;;13.43;;
7330;SDS011;3706;49.198;7.064;2024-01-15T02:31:00;28.27;;;11.77;;
7330;SDS011;3706;49.198;7.064;2024-01-15T02:33:27;30.53;;;12.57;;
7330;SDS011;3706;49.198;7.064;2024-01-15T02:35:54;28.03;;;12.20;;
7330;SDS011;3706;49.198;7.064;2024-01-15T02:38:21;26.93;;;10.70;;
7330;SDS011;3706;49.198;7.064;2024-01-15T02:40:50;33.20;;;12.10;;
7330;SDS011;3706;49.198;7.064;2024-01-15T02:43:17;27.20;;;12.10;;
7330;SDS011;3706;49.198;7.064;2024-01-15T02:45:44;30.17;;;12.33;;
7330;SDS011;3706;49.198;7.064;2024-01-15T02:48:12;28.47;;;11.57;;
7330;SDS011;3706;49.198;7.064;2024-01-15T02:50:42;33.50;;;13.27;;
7330;SDS011;3706;49.198;7.064;2024-01-15T02:53:08;32.00;;;12.97;;
7330;SDS011;3706;49.198;7.064;2024-01-15T02:55:35;34.67;;;12.47;;
7330;SDS011;3706;49.198;7.064;2024-01-15T02:58:04;27.43;;;11.97;;
7330;SDS011;3706;49.198;7.064;2024-01-15T03:00:31;26.67;;;10.87;;
7330;SDS011;3706;49.198;7.064;2024-01-15T03:02:58;27.30;;;10.73;;
7330;SDS011;3706;49.198;7.064;2024-01-15T03:05:27;27.43;;;11.60;;
7330;SDS011;3706;49.198;7.064;2024-01-15T03:07:54;24.83;;;11.00;;
7330;SDS011;3706;49.198;7.064;2024-01-15T03:10:21;30.77;;;12.80;;
7330;SDS011;3706;49.198;7.064;2024-01-15T03:12:48;27.40;;;12.07;;
7330;SDS011;3706;49.198;7.064;2024-01-15T03:15:17;33.77;;;14.03;;
7330;SDS011;3706;49.198;7.064;2024-01-15T03:17:44;32.73;;;13.23;;
7330;SDS011;3706;49.198;7.064;2024-01-15T03:20:11;30.03;;;11.60;;
7330;SDS011;3706;49.198;7.064;2024-01-15T03:22:38;28.93;;;12.07;;
7330;SDS011;3706;49.198;7.064;2024-01-15T03:25:05;29.97;;;11.93;;
7330;SDS011;3706;49.198;7.064;2024-01-15T03:27:33;28.60;;;13.00;;
7330;SDS011;3706;49.198;7.064;2024-01-15T03:30:00;27.60;;;12.00;;
7330;SDS011;3706;49.198;7.064;2024-01-15T03:32:31;28.73;;;12.30;;
7330;SDS011;3706;49.198;7.064;2024-01-15T03:34:58;22.57;;;10.87;;
7330;SDS011;3706;49.198;7.064;2024-01-15T03:37:25;34.37;;;14.40;;
7330;SDS011;3706;49.198;7.064;2024-01-15T03:39:53;28.03;;;12.10;;
7330;SDS011;3706;49.198;7.064;2024-01-15T03:42:19;25.80;;;12.03;;
7330;SDS011;3706;49.198;7.064;2024-01-15T03:44:46;25.80;;;11.73;;
7330;SDS011;3706;49.198;7.064;2024-01-15T03:47:13;28.93;;;11.93;;
7330;SDS011;3706;49.198;7.064;2024-01-15T03:49:42;28.53;;;12.17;;
7330;SDS011;3706;49.198;7.064;2024-01-15T03:52:09;26.37;;;11.63;;
7330;SDS011;3706;49.198;7.064;2024-01-15T03:54:36;31.63;;;11.97;;
7330;SDS011;3706;49.198;7.064;2024-01-15T03:57:03;32.47;;;13.07;;
7330;SDS011;3706;49.198;7.064;2024-01-15T03:59:30;26.80;;;13.17;;
7330;SDS011;3706;49.198;7.064;2024-01-15T04:01:57;28.30;;;10.37;;
7330;SDS011;3706;49.198;7.064;2024-01-15T04:04:27;23.27;;;11.07;;
7330;SDS011;3706;49.198;7.064;2024-01-15T04:06:58;27.00;;;12.37;;
7330;SDS011;3706;49.198;7.064;2024-01-15T04:09:25;28.53;;;11.97;;
7330;SDS011;3706;49.198;7.064;2024-01-15T04:11:53;27.03;;;13.17;;
7330;SDS011;3706;49.198;7.064;2024-01-15T04:14:20;27.20;;;12.33;;
7330;SDS011;3706;49.198;7.064;2024-01-15T04:16:47;32.17;;;13.57;;
7330;SDS011;3706;49.198;7.064;2024-01-15T04:19:14;21.40;;;9.97;;
7330;SDS011;3706;49.198;7.064;2024-01-15T04:21:40;23.90;;;10.53;;
7330;SDS011;3706;49.198;7.064;2024-01-15T04:24:09;27.57;;;12.07;;
7330;SDS011;3706;49.198;7.064;2024-01-15T04:26:36;28.87;;;13.03;;
7330;SDS011;3706;49.198;7.064;2024-01-15T04:29:03;24.90;;;12.60;;
7330;SDS011;3706;49.198;7.064;2024-01-15T04:31:30;31.37;;;14.97;;
7330;SDS011;3706;49.198;7.064;2024-01-15T04:33:57;30.03;;;13.37;;
7330;SDS011;3706;49.198;7.064;2024-01-15T04:36:24;30.80;;;12.73;;
7330;SDS011;3706;49.198;7.064;2024-01-15T04:38:51;29.57;;;12.73;;
7330;SDS011;3706;49.198;7.064;2024-01-15T04:41:19;27.50;;;12.50;;
7330;SDS011;3706;49.198;7.064;2024-01-15T04:43:46;28.97;;;12.63;;
7330;SDS011;3706;49.198;7.064;2024-01-15T04:46:13;26.97;;;11.63;;
7330;SDS011;3706;49.198;7.064;2024-01-15T04:48:40;28.70;;;11.57;;
7330;SDS011;3706;49.198;7.064;2024-01-15T04:51:08;24.20;;;11.07;;
7330;SDS011;3706;49.198;7.064;2024-01-15T04:53:35;30.33;;;12.43;;
7330;SDS011;3706;49.198;7.064;2024-01-15T04:56:03;27.30;;;12.87;;
7330;SDS011;3706;49.198;7.064;2024-01-15T04:58:31;29.70;;;13.53;;
7330;SDS011;3706;49.198;7.064;2024-01-15T05:00:58;29.20;;;13.13;;
7330;SDS011;3706;49.198;7.064;2024-01-15T05:03:25;27.67;;;12.10;;
7330;SDS011;3706;49.198;7.064;2024-01-15T05:05:52;37.63;;;14.37;;
7330;SDS011;3706;49.198;7.064;2024-01-15T05:08:19;32.00;;;12.20;;
7330;SDS011;3706;49.198;7.064;2024-01-15T05:10:46;23.63;;;11.03;;
7330;SDS011;3706;49.198;7.064;2024-01-15T05:13:14;25.57;;;12.73;;
7330;SDS011;3706;49.198;7.064;2024-01-15T05:15:43;29.27;;;12.73;;
7330;SDS011;3706;49.198;7.064;2024-01-15T05:18:10;24.33;;;11.97;;
7330;SDS011;3706;49.198;7.064;2024-01-15T05:20:37;32.30;;;13.90;;
7330;SDS011;3706;49.198;7.064;2024-01-15T05:23:04;28.97;;;13.17;;
7330;SDS011;3706;49.198;7.064;2024-01-15T05:25:31;23.80;;;10.73;;
7330;SDS011;3706;49.198;7.064;2024-01-15T05:27:58;25.60;;;12.07;;
7330;SDS011;3706;49.198;7.064;2024-01-15T05:30:26;25.90;;;13.33;;
7330;SDS011;3706;49.198;7.064;2024-01-15T05:32:54;24.60;;;11.23;;
7330;SDS011;3706;49.198;7.064;2024-01-15T05:35:22;26.57;;;13.07;;
7330;SDS011;3706;49.198;7.064;2024-01-15T05:37:49;31.47;;;13.67;;
7330;SDS011;3706;49.198;7.064;2024-01-15T05:40:16;29.33;;;13.43;;
7330;SDS011;3706;49.198;7.064;2024-01-15T05:42:43;32.77;;;14.23;;
7330;SDS011;3706;49.198;7.064;2024-01-15T05:45:10;22.83;;;10.17;;
7330;SDS011;3706;49.198;7.064;2024-01-15T05:47:37;31.43;;;13.03;;
7330;SDS011;3706;49.198;7.064;2024-01-15T05:50:06;30.03;;;12.27;;
7330;SDS011;3706;49.198;7.064;2024-01-15T05:52:33;27.60;;;12.47;;
7330;SDS011;3706;49.198;7.064;2024-01-15T05:55:00;22.60;;;11.63;;
7330;SDS011;3706;49.198;7.064;2024-01-15T05:57:27;26.27;;;13.07;;
7330;SDS011;3706;49.198;7.064;2024-01-15T05:59:54;26.33;;;12.13;;
7330;SDS011;3706;49.198;7.064;2024-01-15T06:02:21;29.37;;;12.77;;
7330;SDS011;3706;49.198;7.064;2024-01-15T06:04:48;33.30;;;14.33;;
7330;SDS011;3706;49.198;7.064;2024-01-15T06:07:16;23.50;;;12.00;;
7330;SDS011;3706;49.198;7.064;2024-01-15T06:09:43;26.93;;;12.57;;
7330;SDS011;3706;49.198;7.064;2024-01-15T06:12:10;30.93;;;13.23;;
7330;SDS011;3706;49.198;7.064;2024-01-15T06:14:37;27.47;;;12.47;;
7330;SDS011;3706;49.198;7.064;2024-01-15T06:17:06;24.73;;;12.30;;
7330;SDS011;3706;49.198;7.064;2024-01-15T06:19:33;27.20;;;12.27;;
7330;SDS011;3706;49.198;7.064;2024-01-15T06:22:00;25.33;;;12.47;;
7330;SDS011;3706;49.198;7.064;2024-01-15T06:24:28;29.50;;;12.27;;
7330;SDS011;3706;49.198;7.064;2024-01-15T06:26:55;35.73;;;13.00;;
7330;SDS011;3706;49.198;7.064;2024-01-15T06:29:25;29.90;;;14.13;;
7330;SDS011;3706;49.198;7.064;2024-01-15T06:31:52;24.47;;;12.00;;
7330;SDS011;3706;49.198;7.064;2024-01-15T06:34:19;24.00;;;11.03;;
7330;SDS011;3706;49.198;7.064;2024-01-15T06:36:46;28.10;;;11.97;;
7330;SDS011;3706;49.198;7.064;2024-01-15T06:39:13;27.27;;;13.17;;
7330;SDS011;3706;49.198;7.064;2024-01-15T06:41:42;30.63;;;13.80;;
7330;SDS011;3706;49.198;7.064;2024-01-15T06:44:09;28.80;;;13.10;;
7330;SDS011;3706;49.198;7.064;2024-01-15T06:46:37;25.47;;;12.30;;
7330;SDS011;3706;49.198;7.064;2024-01-15T06:49:08;24.13;;;12.37;;
7330;SDS011;3706;49.198;7.064;2024-01-15T06:51:35;27.67;;;12.20;;
7330;SDS011;3706;49.198;7.064;2024-01-15T06:54:02;29.57;;;11.80;;
7330;SDS011;3706;49.198;7.064;2024-01-15T06:56:29;26.03;;;12.37;;
7330;SDS011;3706;49.198;7.064;2024-01-15T06:58:58;25.70;;;12.53;;
7330;SDS011;3706;49.198;7.064;2024-01-15T07:01:25;30.73;;;13.77;;
7330;SDS011;3706;49.198;7.064;2024-01-15T07:03:52;28.07;;;12.20;;
7330;SDS011;3706;49.198;7.064;2024-01-15T07:06:19;26.60;;;12.27;;
7330;SDS011;3706;49.198;7.064;2024-01-15T07:08:46;27.77;;;11.47;;
7330;SDS011;3706;49.198;7.064;2024-01-15T07:11:13;24.50;;;11.90;;
7330;SDS011;3706;49.198;7.064;2024-01-15T07:13:40;30.27;;;13.13;;
7330;SDS011;3706;49.198;7.064;2024-01-15T07:16:11;28.97;;;12.67;;
7330;SDS011;3706;49.198;7.064;2024-01-15T07:18:38;25.57;;;10.93;;
7330;SDS011;3706;49.198;7.064;2024-01-15T07:21:08;29.23;;;13.60;;
7330;SDS011;3706;49.198;7.064;2024-01-15T07:23:35;27.17;;;13.43;;
7330;SDS011;3706;49.198;7.064;2024-01-15T07:26:02;21.67;;;10.00;;
7330;SDS011;3706;49.198;7.064;2024-01-15T07:28:30;28.33;;;12.63;;
7330;SDS011;3706;49.198;7.064;2024-01-15T07:30:57;32.30;;;12.33;;
7330;SDS011;3706;49.198;7.064;2024-01-15T07:33:26;29.03;;;12.30;;
7330;SDS011;3706;49.198;7.064;2024-01-15T07:35:53;29.63;;;13.30;;
7330;SDS011;3706;49.198;7.064;2024-01-15T07:38:20;28.90;;;13.00;;
7330;SDS011;3706;49.198;7.064;2024-01-15T07:40:47;31.03;;;14.03;;
7330;SDS011;3706;49.198;7.064;2024-01-15T07:43:14;30.23;;;12.77;;
7330;SDS011;3706;49.198;7.064;2024-01-15T07:45:41;22.07;;;10.93;;
7330;SDS011;3706;49.198;7.064;2024-01-15T07:48:08;30.23;;;12.67;;
7330;SDS011;3706;49.198;7.064;2024-01-15T07:50:37;28.27;;;12.77;;
7330;SDS011;3706;49.198;7.064;2024-01-15T07:53:06;30.07;;;12.50;;
7330;SDS011;3706;49.198;7.064;2024-01-15T07:55:33;37.03;;;13.30;;
7330;SDS011;3706;49.198;7.064;2024-01-15T07:58:00;26.43;;;11.23;;
7330;SDS011;3706;49.198;7.064;2024-01-15T08:00:28;31.83;;;13.63;;
7330;SDS011;3706;49.198;7.064;2024-01-15T08:02:55;32.00;;;14.40;;
7330;SDS011;3706;49.198;7.064;2024-01-15T08:05:22;26.63;;;12.53;;
7330;SDS011;3706;49.198;7.064;2024-01-15T08:07:50;27.80;;;12.20;;
7330;SDS011;3706;49.198;7.064;2024-01-15T08:10:17;34.37;;;14.10;;
7330;SDS011;3706;49.198;7.064;2024-01-15T08:12:44;28.60;;;12.87;;
7330;SDS011;3706;49.198;7.064;2024-01-15T08:15:11;28.93;;;13.33;;
7330;SDS011;3706;49.198;7.064;2024-01-15T08:17:39;29.80;;;13.27;;
7330;SDS011;3706;49.198;7.064;2024-01-15T08:20:07;26.80;;;11.67;;
7330;SDS011;3706;49.198;7.064;2024-01-15T08:22:35;24.67;;;12.17;;
7330;SDS011;3706;49.198;7.064;2024-01-15T08:25:04;27.33;;;12.63;;
7330;SDS011;3706;49.198;7.064;2024-01-15T08:27:31;27.40;;;12.17;;
7330;SDS011;3706;49.198;7.064;2024-01-15T08:29:58;22.67;;;10.77;;
7330;SDS011;3706;49.198;7.064;2024-01-15T08:32:25;27.33;;;12.57;;
7330;SDS011;3706;49.198;7.064;2024-01-15T08:34:52;25.47;;;12.37;;
7330;SDS011;3706;49.198;7.064;2024-01-15T08:37:19;33.47;;;14.07;;
7330;SDS011;3706;49.198;7.064;2024-01-15T08:39:46;25.97;;;13.30;;
7330;SDS011;3706;49.198;7.064;2024-01-15T08:42:15;28.70;;;13.13;;
7330;SDS011;3706;49.198;7.064;2024-01-15T08:44:42;18.27;;;10.27;;
7330;SDS011;3706;49.198;7.064;2024-01-15T08:47:09;28.07;;;12.30;;
7330;SDS011;3706;49.198;7.064;2024-01-15T08:49:36;22.67;;;12.60;;
7330;SDS011;3706;49.198;7.064;2024-01-15T08:52:03;23.03;;;11.60;;
7330;SDS011;3706;49.198;7.064;2024-01-15T08:54:30;25.53;;;13.07;;
7330;SDS011;3706;49.198;7.064;2024-01-15T08:56:57;25.83;;;12.00;;
7330;SDS011;3706;49.198;7.064;2024-01-15T08:59:26;29.77;;;13.13;;
7330;SDS011;3706;49.198;7.064;2024-01-15T09:01:55;23.77;;;12.87;;
7330;SDS011;3706;49.198;7.064;2024-01-15T09:04:23;22.67;;;11.33;;
7330;SDS011;3706;49.198;7.064;2024-01-15T09:06:50;21.13;;;10.77;;
7330;SDS011;3706;49.198;7.064;2024-01-15T09:09:17;29.07;;;13.60;;
7330;SDS011;3706;49.198;7.064;2024-01-15T09:11:44;27.40;;;13.60;;
7330;SDS011;3706;49.198;7.064;2024-01-15T09:14:11;26.57;;;13.33;;
7330;SDS011;3706;49.198;7.064;2024-01-15T09:16:40;27.53;;;13.90;;
7330;SDS011;3706;49.198;7.064;2024-01-15T09:19:08;23.93;;;12.77;;
7330;SDS011;3706;49.198;7.064;2024-01-15T09:21:35;22.03;;;10.90;;
7330;SDS011;3706;49.198;7.064;2024-01-15T09:24:04;25.27;;;12.20;;
7330;SDS011;3706;49.198;7.064;2024-01-15T09:26:31;27.00;;;13.20;;
7330;SDS011;3706;49.198;7.064;2024-01-15T09:28:59;23.90;;;12.77;;
7330;SDS011;3706;49.198;7.064;2024-01-15T09:31:26;22.37;;;11.77;;
7330;SDS011;3706;49.198;7.064;2024-01-15T09:33:54;22.67;;;11.63;;
7330;SDS011;3706;49.198;7.064;2024-01-15T09:36:23;24.27;;;11.07;;
7330;SDS011;3706;49.198;7.064;2024-01-15T09:38:50;23.90;;;12.23;;
7330;SDS011;3706;49.198;7.064;2024-01-15T09:41:17;23.00;;;11.70;;
7330;SDS011;3706;49.198;7.064;2024-01-15T09:43:45;24.57;;;12.53;;
7330;SDS011;3706;49.198;7.064;2024-01-15T09:46:13;19.97;;;10.60;;
7330;SDS011;3706;49.198;7.064;2024-01-15T09:48:41;34.43;;;17.93;;
7330;SDS011;3706;49.198;7.064;2024-01-15T09:51:10;28.73;;;15.03;;
7330;SDS011;3706;49.198;7.064;2024-01-15T09:53:37;27.37;;;13.93;;
7330;SDS011;3706;49.198;7.064;2024-01-15T09:56:07;24.63;;;13.03;;
7330;SDS011;3706;49.198;7.064;2024-01-15T09:58:37;25.17;;;11.50;;
7330;SDS011;3706;49.198;7.064;2024-01-15T10:01:07;27.33;;;13.77;;
7330;SDS011;3706;49.198;7.064;2024-01-15T10:03:37;24.10;;;11.97;;
7330;SDS011;3706;49.198;7.064;2024-01-15T10:06:06;21.50;;;11.93;;
7330;SDS011;3706;49.198;7.064;2024-01-15T10:08:36;18.70;;;10.00;;
7330;SDS011;3706;49.198;7.064;2024-01-15T10:11:04;22.97;;;11.67;;
7330;SDS011;3706;49.198;7.064;2024-01-15T10:13:31;15.67;;;8.97;;
7330;SDS011;3706;49.198;7.064;2024-01-15T10:16:02;25.27;;;13.37;;
7330;SDS011;3706;49.198;7.064;2024-01-15T10:18:30;21.27;;;10.90;;
7330;SDS011;3706;49.198;7.064;2024-01-15T10:20:58;20.43;;;10.30;;
7330;SDS011;3706;49.198;7.064;2024-01-15T10:23:25;16.70;;;8.70;;
7330;SDS011;3706;49.198;7.064;2024-01-15T10:25:54;16.97;;;8.73;;
7330;SDS011;3706;49.198;7.064;2024-01-15T10:28:25;14.40;;;8.73;;
7330;SDS011;3706;49.198;7.064;2024-01-15T10:30:55;12.67;;;6.73;;
7330;SDS011;3706;49.198;7.064;2024-01-15T10:33:24;11.73;;;7.13;;
7330;SDS011;3706;49.198;7.064;2024-01-15T10:35:53;14.17;;;7.40;;
7330;SDS011;3706;49.198;7.064;2024-01-15T10:38:20;15.40;;;7.40;;
7330;SDS011;3706;49.198;7.064;2024-01-15T10:40:48;13.43;;;7.80;;
7330;SDS011;3706;49.198;7.064;2024-01-15T10:43:18;16.00;;;7.60;;
7330;SDS011;3706;49.198;7.064;2024-01-15T10:46:01;12.67;;;7.20;;
7330;SDS011;3706;49.198;7.064;2024-01-15T10:49:16;15.43;;;7.63;;
7330;SDS011;3706;49.198;7.064;2024-01-15T10:52:10;15.17;;;7.63;;
7330;SDS011;3706;49.198;7.064;2024-01-15T10:54:37;12.50;;;7.00;;
7330;SDS011;3706;49.198;7.064;2024-01-15T10:57:05;13.67;;;6.87;;
7330;SDS011;3706;49.198;7.064;2024-01-15T10:59:34;12.47;;;7.23;;
7330;SDS011;3706;49.198;7.064;2024-01-15T11:02:05;14.03;;;6.93;;
7330;SDS011;3706;49.198;7.064;2024-01-15T11:04:47;12.37;;;6.60;;
7330;SDS011;3706;49.198;7.064;2024-01-15T11:07:20;11.23;;;7.93;;
7330;SDS011;3706;49.198;7.064;2024-01-15T11:09:49;11.33;;;7.13;;
7330;SDS011;3706;49.198;7.064;2024-01-15T11:12:17;12.00;;;6.53;;
7330;SDS011;3706;49.198;7.064;2024-01-15T11:14:47;12.37;;;8.13;;
7330;SDS011;3706;49.198;7.064;2024-01-15T11:17:16;15.30;;;7.73;;
7330;SDS011;3706;49.198;7.064;2024-01-15T11:19:44;13.07;;;6.93;;
7330;SDS011;3706;49.198;7.064;2024-01-15T11:25:24;10.80;;;6.93;;
7330;SDS011;3706;49.198;7.064;2024-01-15T11:28:01;17.63;;;9.13;;
7330;SDS011;3706;49.198;7.064;2024-01-15T11:30:30;16.00;;;8.13;;
7330;SDS011;3706;49.198;7.064;2024-01-15T11:33:01;12.10;;;7.47;;
7330;SDS011;3706;49.198;7.064;2024-01-15T11:38:29;14.93;;;7.80;;
7330;SDS011;3706;49.198;7.064;2024-01-15T11:40:56;16.87;;;8.30;;
7330;SDS011;3706;49.198;7.064;2024-01-15T11:43:28;14.10;;;7.97;;
7330;SDS011;3706;49.198;7.064;2024-01-15T11:46:02;12.80;;;6.90;;
7330;SDS011;3706;49.198;7.064;2024-01-15T11:48:30;13.63;;;8.03;;
7330;SDS011;3706;49.198;7.064;2024-01-15T11:51:08;15.40;;;8.67;;
7330;SDS011;3706;49.198;7.064;2024-01-15T11:53:40;15.00;;;8.40;;
7330;SDS011;3706;49.198;7.064;2024-01-15T11:56:14;15.73;;;10.40;;
7330;SDS011;3706;49.198;7.064;2024-01-15T11:58:42;11.70;;;8.00;;
7330;SDS011;3706;49.198;7.064;2024-01-15T12:01:11;14.07;;;7.90;;
7330;SDS011;3706;49.198;7.064;2024-01-15T12:03:44;10.70;;;6.57;;
7330;SDS011;3706;49.198;7.064;2024-01-15T12:06:14;13.90;;;8.23;;
7330;SDS011;3706;49.198;7.064;2024-01-15T12:08:41;16.70;;;8.50;;
7330;SDS011;3706;49.198;7.064;2024-01-15T12:11:10;12.03;;;7.10;;
7330;SDS011;3706;49.198;7.064;2024-01-15T12:13:42;11.80;;;7.67;;
7330;SDS011;3706;49.198;7.064;2024-01-15T12:16:09;15.60;;;8.20;;
7330;SDS011;3706;49.198;7.064;2024-01-15T12:18:37;8.13;;;5.17;;
7330;SDS011;3706;49.198;7.064;2024-01-15T12:21:04;15.03;;;8.07;;
7330;SDS011;3706;49.198;7.064;2024-01-15T12:23:31;15.50;;;8.00;;
7330;SDS011;3706;49.198;7.064;2024-01-15T12:26:11;11.80;;;7.20;;
7330;SDS011;3706;49.198;7.064;2024-01-15T12:28:44;14.50;;;8.50;;
7330;SDS011;3706;49.198;7.064;2024-01-15T12:40:27;13.80;;;7.57;;
7330;SDS011;3706;49.198;7.064;2024-01-15T12:42:57;12.33;;;7.23;;
7330;SDS011;3706;49.198;7.064;2024-01-15T12:51:34;16.37;;;7.97;;
7330;SDS011;3706;49.198;7.064;2024-01-15T12:54:05;12.43;;;7.30;;
7330;SDS011;3706;49.198;7.064;2024-01-15T12:56:32;12.53;;;7.40;;
7330;SDS011;3706;49.198;7.064;2024-01-15T12:58:59;12.50;;;7.10;;
7330;SDS011;3706;49.198;7.064;2024-01-15T13:01:33;9.60;;;6.17;;
7330;SDS011;3706;49.198;7.064;2024-01-15T13:08:01;11.77;;;7.53;;
7330;SDS011;3706;49.198;7.064;2024-01-15T13:13:48;11.90;;;7.10;;
7330;SDS011;3706;49.198;7.064;2024-01-15T13:16:39;11.40;;;7.07;;
7330;SDS011;3706;49.198;7.064;2024-01-15T13:19:07;13.90;;;7.60;;
7330;SDS011;3706;49.198;7.064;2024-01-15T13:21:53;13.27;;;7.87;;
7330;SDS011;3706;49.198;7.064;2024-01-15T13:24:37;13.37;;;7.10;;
7330;SDS011;3706;49.198;7.064;2024-01-15T13:27:05;11.37;;;7.03;;
7330;SDS011;3706;49.198;7.064;2024-01-15T13:29:32;14.07;;;7.80;;
7330;SDS011;3706;49.198;7.064;2024-01-15T13:32:18;10.33;;;6.87;;
7330;SDS011;3706;49.198;7.064;2024-01-15T13:35:03;11.13;;;6.93;;
7330;SDS011;3706;49.198;7.064;2024-01-15T13:38:13;11.63;;;6.97;;
7330;SDS011;3706;49.198;7.064;2024-01-15T13:41:04;11.17;;;7.10;;
7330;SDS011;3706;49.198;7.064;2024-01-15T13:43:54;13.30;;;7.17;;
7330;SDS011;3706;49.198;7.064;2024-01-15T13:46:23;13.50;;;8.00;;
7330;SDS011;3706;49.198;7.064;2024-01-15T13:48:52;13.80;;;7.37;;
7330;SDS011;3706;49.198;7.064;2024-01-15T13:51:21;11.90;;;6.77;;
7330;SDS011;3706;49.198;7.064;2024-01-15T13:53:49;10.97;;;5.53;;
7330;SDS011;3706;49.198;7.064;2024-01-15T13:56:16;11.03;;;5.80;;
7330;SDS011;3706;49.198;7.064;2024-01-15T13:58:43;11.43;;;6.67;;
7330;SDS011;3706;49.198;7.064;2024-01-15T14:01:12;9.27;;;6.00;;
7330;SDS011;3706;49.198;7.064;2024-01-15T14:03:38;12.00;;;5.93;;
7330;SDS011;3706;49.198;7.064;2024-01-15T14:06:05;13.70;;;7.40;;
7330;SDS011;3706;49.198;7.064;2024-01-15T14:08:35;8.63;;;6.10;;
7330;SDS011;3706;49.198;7.064;2024-01-15T14:11:03;8.47;;;5.70;;
7330;SDS011;3706;49.198;7.064;2024-01-15T14:13:31;10.97;;;7.43;;
7330;SDS011;3706;49.198;7.064;2024-01-15T14:16:01;9.20;;;5.97;;
7330;SDS011;3706;49.198;7.064;2024-01-15T14:18:30;12.37;;;7.40;;
7330;SDS011;3706;49.198;7.064;2024-01-15T14:20:57;11.73;;;6.27;;
7330;SDS011;3706;49.198;7.064;2024-01-15T14:23:24;9.33;;;6.53;;
7330;SDS011;3706;49.198;7.064;2024-01-15T14:25:51;12.53;;;7.30;;
7330;SDS011;3706;49.198;7.064;2024-01-15T14:28:18;10.63;;;6.43;;
7330;SDS011;3706;49.198;7.064;2024-01-15T14:30:45;14.13;;;6.77;;
7330;SDS011;3706;49.198;7.064;2024-01-15T14:33:12;10.93;;;7.23;;
7330;SDS011;3706;49.198;7.064;2024-01-15T14:35:41;11.43;;;6.00;;
7330;SDS011;3706;49.198;7.064;2024-01-15T14:38:11;9.70;;;6.07;;
7330;SDS011;3706;49.198;7.064;2024-01-15T14:40:38;13.07;;;8.87;;
7330;SDS011;3706;49.198;7.064;2024-01-15T14:43:05;11.03;;;6.90;;
7330;SDS011;3706;49.198;7.064;2024-01-15T14:45:33;12.63;;;5.87;;
7330;SDS011;3706;49.198;7.064;2024-01-15T14:48:00;10.00;;;6.27;;
7330;SDS011;3706;49.198;7.064;2024-01-15T14:50:27;10.60;;;6.13;;
7330;SDS011;3706;49.198;7.064;2024-01-15T14:59:23;8.80;;;5.90;;
7330;SDS011;3706;49.198;7.064;2024-01-15T15:01:51;11.53;;;6.60;;
7330;SDS011;3706;49.198;7.064;2024-01-15T15:04:19;6.03;;;4.27;;
7330;SDS011;3706;49.198;7.064;2024-01-15T15:06:46;9.40;;;5.27;;
7330;SDS011;3706;49.198;7.064;2024-01-15T15:09:13;9.47;;;5.60;;
7330;SDS011;3706;49.198;7.064;2024-01-15T15:11:40;8.83;;;4.87;;
7330;SDS011;3706;49.198;7.064;2024-01-15T15:14:07;8.77;;;4.80;;
7330;SDS011;3706;49.198;7.064;2024-01-15T15:16:37;7.40;;;4.60;;
7330;SDS011;3706;49.198;7.064;2024-01-15T15:19:03;6.07;;;4.07;;
7330;SDS011;3706;49.198;7.064;2024-01-15T15:21:30;9.90;;;4.73;;
7330;SDS011;3706;49.198;7.064;2024-01-15T15:23:58;8.93;;;4.73;;
7330;SDS011;3706;49.198;7.064;2024-01-15T15:26:25;7.17;;;4.43;;
7330;SDS011;3706;49.198;7.064;2024-01-15T15:28:52;8.20;;;4.37;;
7330;SDS011;3706;49.198;7.064;2024-01-15T15:31:19;7.87;;;4.13;;
7330;SDS011;3706;49.198;7.064;2024-01-15T15:33:48;8.73;;;4.90;;
7330;SDS011;3706;49.198;7.064;2024-01-15T15:36:16;9.07;;;4.40;;